createdAt,value
2022-08-07T00:00:24.555Z,0.82
2022-08-07T00:02:53.804Z,0.93
2022-08-07T00:05:21.390Z,0.95
2022-08-07T00:07:59.558Z,0.80
2022-08-07T00:10:29.783Z,0.77
2022-08-07T00:13:02.111Z,0.90
2022-08-07T00:15:38.633Z,0.93
2022-08-07T00:18:19.862Z,1.02
2022-08-07T00:20:50.186Z,0.82
2022-08-07T00:23:18.106Z,0.65
2022-08-07T00:25:58.851Z,1.05
2022-08-07T00:28:33.551Z,1.17
2022-08-07T00:31:04.547Z,0.93
2022-08-07T00:33:34.288Z,0.80
2022-08-07T00:38:31.081Z,0.65
2022-08-07T00:40:59.550Z,0.60
2022-08-07T00:44:00.978Z,1.10
2022-08-07T00:46:13.426Z,1.27
2022-08-07T00:48:42.008Z,0.68
2022-08-07T00:53:38.388Z,3.38
2022-08-07T00:56:13.806Z,1.95
2022-08-07T00:58:46.747Z,0.93
2022-08-07T01:01:15.363Z,1.15
2022-08-07T01:03:55.865Z,0.70
2022-08-07T01:06:30.401Z,0.90
2022-08-07T01:09:00.901Z,1.05
2022-08-07T01:12:09.037Z,0.63
2022-08-07T01:14:28.262Z,1.02
2022-08-07T01:16:56.446Z,0.65
2022-08-07T01:19:23.510Z,0.80
2022-08-07T01:21:53.466Z,0.73
2022-08-07T01:24:22.823Z,0.75
2022-08-07T01:26:52.769Z,1.23
2022-08-07T01:29:27.949Z,0.70
2022-08-07T01:31:59.469Z,1.00
2022-08-07T01:34:30.970Z,2.88
2022-08-07T01:36:58.776Z,0.70
2022-08-07T01:39:39.438Z,0.80
2022-08-07T01:42:38.538Z,1.75
2022-08-07T01:44:55.615Z,0.90
2022-08-07T01:48:18.500Z,1.13
2022-08-07T01:50:09.838Z,0.70
2022-08-07T01:52:49.311Z,1.00
2022-08-07T01:55:22.396Z,0.70
2022-08-07T01:58:05.900Z,0.60
2022-08-07T02:00:48.991Z,0.60
2022-08-07T02:03:21.968Z,1.05
2022-08-07T02:09:00.665Z,0.60
2022-08-07T02:12:02.903Z,0.70
2022-08-07T02:14:40.961Z,0.77
2022-08-07T02:17:09.693Z,0.70
2022-08-07T02:20:04.718Z,1.23
2022-08-07T02:22:28.657Z,0.93
2022-08-07T02:27:26.135Z,0.60
2022-08-07T02:30:03.977Z,0.77
2022-08-07T02:32:39.432Z,0.90
2022-08-07T02:36:29.722Z,1.85
2022-08-07T02:38:15.668Z,0.70
2022-08-07T02:40:46.621Z,0.50
2022-08-07T02:43:15.192Z,0.60
2022-08-07T02:46:00.982Z,0.70
2022-08-07T02:48:30.475Z,1.13
2022-08-07T02:50:59.865Z,0.50
2022-08-07T02:53:34.010Z,0.70
2022-08-07T02:56:12.861Z,1.00
2022-08-07T02:58:48.347Z,0.73
2022-08-07T03:01:18.441Z,1.08
2022-08-07T03:03:50.498Z,0.80
2022-08-07T03:06:26.184Z,0.60
2022-08-07T03:09:02.315Z,0.80
2022-08-07T03:11:32.655Z,0.75
2022-08-07T03:14:06.113Z,1.25
2022-08-07T03:16:36.516Z,0.70
2022-08-07T03:19:05.526Z,0.75
2022-08-07T03:21:32.902Z,1.00
2022-08-07T03:24:20.559Z,0.63
2022-08-07T03:29:36.751Z,1.25
2022-08-07T03:32:13.019Z,0.75
2022-08-07T03:35:00.657Z,1.77
2022-08-07T03:37:32.640Z,0.50
2022-08-07T03:40:15.940Z,0.55
2022-08-07T03:45:11.380Z,0.60
2022-08-07T03:47:48.195Z,0.98
2022-08-07T03:50:22.956Z,0.60
2022-08-07T03:52:51.552Z,0.52
2022-08-07T03:55:18.475Z,0.60
2022-08-07T03:58:33.519Z,1.67
2022-08-07T04:00:36.539Z,0.80
2022-08-07T04:05:41.023Z,0.88
2022-08-07T04:08:16.118Z,0.95
2022-08-07T04:10:54.528Z,1.05
2022-08-07T04:14:09.481Z,0.55
2022-08-07T04:16:31.311Z,0.77
2022-08-07T04:19:12.650Z,1.00
2022-08-07T04:21:59.516Z,0.85
2022-08-07T04:24:33.789Z,0.93
2022-08-07T04:27:03.119Z,0.80
2022-08-07T04:29:48.651Z,0.50
2022-08-07T04:32:18.480Z,0.70
2022-08-07T04:35:05.323Z,0.52
2022-08-07T04:37:40.301Z,0.50
2022-08-07T04:40:20.014Z,0.65
2022-08-07T04:42:51.699Z,0.70
2022-08-07T04:45:57.675Z,0.80
2022-08-07T04:48:17.532Z,0.82
2022-08-07T04:51:19.249Z,1.05
2022-08-07T04:54:05.857Z,0.70
2022-08-07T04:58:11.330Z,0.98
2022-08-07T05:00:11.269Z,0.57
2022-08-07T05:02:29.967Z,0.60
2022-08-07T05:05:52.914Z,1.20
2022-08-07T05:08:59.783Z,1.20
2022-08-07T05:11:57.560Z,0.50
2022-08-07T05:14:55.703Z,0.98
2022-08-07T05:17:51.873Z,0.70
2022-08-07T05:20:10.936Z,0.80
2022-08-07T05:22:38.866Z,0.60
2022-08-07T05:25:08.457Z,0.77
2022-08-07T05:28:03.183Z,0.60
2022-08-07T05:30:30.311Z,0.50
2022-08-07T05:33:02.559Z,0.50
2022-08-07T05:38:09.834Z,0.70
2022-08-07T05:40:50.552Z,0.60
2022-08-07T05:43:19.239Z,0.82
2022-08-07T05:46:06.388Z,1.17
2022-08-07T05:48:34.016Z,0.95
2022-08-07T05:51:01.857Z,0.90
2022-08-07T05:54:12.817Z,1.42
2022-08-07T05:56:19.383Z,0.85
2022-08-07T05:58:52.857Z,1.60
2022-08-07T06:01:20.473Z,1.38
2022-08-07T06:03:56.849Z,1.02
2022-08-07T06:06:29.561Z,1.33
2022-08-07T06:08:59.216Z,1.10
2022-08-07T06:11:26.323Z,1.45
2022-08-07T06:14:11.479Z,1.13
2022-08-07T06:16:41.141Z,1.38
2022-08-07T06:19:08.548Z,1.73
2022-08-07T06:24:45.691Z,1.10
2022-08-07T06:27:43.740Z,1.13
2022-08-07T06:30:32.427Z,2.67
2022-08-07T06:32:56.484Z,1.27
2022-08-07T06:35:23.351Z,2.17
2022-08-07T06:37:58.307Z,2.33
2022-08-07T06:43:03.244Z,1.10
2022-08-07T06:45:35.809Z,1.10
2022-08-07T06:48:06.531Z,1.23
2022-08-07T06:50:43.246Z,1.35
2022-08-07T06:53:49.203Z,2.00
2022-08-07T06:56:01.244Z,1.65
2022-08-07T06:58:29.792Z,1.08
2022-08-07T07:00:59.804Z,1.80
2022-08-07T07:03:47.456Z,1.73
2022-08-07T07:06:14.322Z,1.13
2022-08-07T07:08:51.025Z,1.52
2022-08-07T07:12:09.067Z,1.48
2022-08-07T07:14:08.543Z,1.33
2022-08-07T07:16:45.158Z,1.35
2022-08-07T07:19:57.662Z,1.13
2022-08-07T07:22:36.513Z,1.30
2022-08-07T07:25:13.898Z,1.85
2022-08-07T07:28:02.698Z,3.67
2022-08-07T07:33:11.777Z,1.55
2022-08-07T07:35:54.187Z,2.00
2022-08-07T07:41:01.874Z,4.25
2022-08-07T07:44:14.823Z,1.83
2022-08-07T07:49:09.133Z,2.08
2022-08-07T07:51:58.095Z,2.97
2022-08-07T07:54:27.101Z,2.53
2022-08-07T07:56:55.471Z,2.30
2022-08-07T07:59:52.115Z,2.05
2022-08-07T08:02:33.609Z,2.65
2022-08-07T08:07:51.678Z,2.10
2022-08-07T08:10:37.712Z,1.70
2022-08-07T08:15:57.927Z,1.75
2022-08-07T08:18:28.184Z,2.72
2022-08-07T08:20:55.955Z,1.55
2022-08-07T08:26:31.486Z,1.65
2022-08-07T08:29:00.148Z,2.22
2022-08-07T08:32:17.366Z,2.30
2022-08-07T08:34:27.115Z,1.73
2022-08-07T08:36:58.020Z,2.03
2022-08-07T08:39:39.761Z,1.50
2022-08-07T08:42:25.819Z,1.50
2022-08-07T08:47:31.615Z,1.90
2022-08-07T08:50:55.809Z,1.67
2022-08-07T08:53:35.810Z,2.35
2022-08-07T08:56:31.279Z,1.30
2022-08-07T08:59:16.429Z,1.52
2022-08-07T09:02:04.241Z,1.48
2022-08-07T09:05:36.648Z,1.85
2022-08-07T09:08:07.781Z,1.40
2022-08-07T09:10:52.968Z,1.67
2022-08-07T09:13:38.652Z,1.35
2022-08-07T09:16:25.929Z,1.48
2022-08-07T09:19:53.470Z,1.42
2022-08-07T09:24:32.198Z,1.35
2022-08-07T09:25:26.645Z,1.40
2022-08-07T09:28:02.036Z,1.55
2022-08-07T09:30:54.848Z,1.48
2022-08-07T09:33:59.684Z,1.58
2022-08-07T09:36:37.309Z,1.23
2022-08-07T09:39:52.597Z,1.40
2022-08-07T09:42:50.451Z,1.25
2022-08-07T09:47:27.828Z,1.50
2022-08-07T09:48:55.849Z,1.25
2022-08-07T09:52:15.631Z,1.77
2022-08-07T09:54:58.538Z,1.42
2022-08-07T09:57:30.207Z,1.40
2022-08-07T10:00:18.836Z,1.30
2022-08-07T10:03:08.233Z,1.48
2022-08-07T10:06:24.345Z,1.20
2022-08-07T10:09:03.520Z,1.27
2022-08-07T10:12:02.505Z,1.13
2022-08-07T10:14:59.020Z,1.52
2022-08-07T10:18:26.440Z,1.63
2022-08-07T10:22:12.094Z,1.35
2022-08-07T10:24:50.078Z,1.27
2022-08-07T10:30:16.641Z,1.35
2022-08-07T10:32:54.202Z,0.98
2022-08-07T10:35:55.289Z,1.00
2022-08-07T10:38:42.073Z,1.33
2022-08-07T10:41:51.588Z,1.02
2022-08-07T10:44:37.403Z,1.13
2022-08-07T10:47:24.130Z,1.27
2022-08-07T10:50:15.407Z,1.35
2022-08-07T10:53:08.164Z,1.25
2022-08-07T10:55:42.876Z,1.27
2022-08-07T10:58:13.957Z,1.30
2022-08-07T11:00:56.490Z,1.20
2022-08-07T11:06:44.514Z,0.93
2022-08-07T11:10:07.979Z,1.13
2022-08-07T11:13:16.810Z,1.30
2022-08-07T11:15:57.587Z,2.13
2022-08-07T11:18:39.018Z,1.92
2022-08-07T11:21:43.234Z,0.90
2022-08-07T11:24:28.825Z,1.05
2022-08-07T11:28:03.172Z,1.27
2022-08-07T11:30:41.563Z,1.05
2022-08-07T11:33:53.600Z,1.10
2022-08-07T11:40:00.192Z,1.00
2022-08-07T11:42:43.929Z,0.80
2022-08-07T11:45:20.496Z,1.58
2022-08-07T11:47:59.356Z,1.10
2022-08-07T11:55:13.032Z,1.20
2022-08-07T11:58:04.685Z,1.33
2022-08-07T12:01:05.239Z,1.17
2022-08-07T12:03:51.394Z,0.77
2022-08-07T12:06:50.740Z,1.08
2022-08-07T12:09:28.945Z,1.08
2022-08-07T12:12:10.324Z,0.93
2022-08-07T12:15:04.944Z,0.80
2022-08-07T12:17:58.728Z,0.90
2022-08-07T12:20:52.579Z,1.15
2022-08-07T12:24:07.216Z,1.08
2022-08-07T12:26:55.377Z,0.80
2022-08-07T12:29:38.015Z,1.08
2022-08-07T12:32:14.857Z,1.13
2022-08-07T12:34:49.475Z,1.25
2022-08-07T12:37:28.391Z,1.20
2022-08-07T12:40:36.131Z,1.20
2022-08-07T12:43:01.865Z,1.05
2022-08-07T12:45:55.353Z,1.02
2022-08-07T12:51:24.491Z,0.90
2022-08-07T12:54:36.467Z,0.80
2022-08-07T12:57:09.691Z,0.98
2022-08-07T12:59:55.456Z,0.88
2022-08-07T13:12:13.214Z,1.10
2022-08-07T13:14:55.326Z,0.90
2022-08-07T13:20:40.075Z,1.95
2022-08-07T13:31:55.138Z,0.88
2022-08-07T13:40:42.079Z,1.03
2022-08-07T13:43:12.554Z,1.17
2022-08-07T13:46:11.454Z,0.95
2022-08-07T13:48:34.453Z,1.42
2022-08-07T13:51:27.569Z,0.70
2022-08-07T13:54:00.516Z,2.15
2022-08-07T13:56:35.281Z,0.95
2022-08-07T13:59:15.719Z,0.70
2022-08-07T14:02:04.109Z,0.80
2022-08-07T14:04:37.329Z,1.45
2022-08-07T14:07:09.579Z,1.05
2022-08-07T14:10:02.375Z,0.98
2022-08-07T14:15:41.019Z,1.02
2022-08-07T14:22:01.788Z,0.77
2022-08-07T14:28:11.750Z,0.88
2022-08-07T14:30:10.421Z,0.77
2022-08-07T14:32:47.972Z,1.42
2022-08-07T14:35:44.559Z,0.70
2022-08-07T14:38:26.761Z,1.15
2022-08-07T14:41:02.164Z,0.90
2022-08-07T14:46:31.040Z,1.00
2022-08-07T14:49:00.147Z,1.77
2022-08-07T14:52:03.964Z,0.87
2022-08-07T14:54:42.869Z,0.70
2022-08-07T14:57:19.088Z,0.82
2022-08-07T15:02:34.914Z,2.25
2022-08-07T15:05:23.494Z,0.88
2022-08-07T15:07:53.385Z,0.73
2022-08-07T15:10:26.242Z,1.10
2022-08-07T15:13:11.356Z,4.63
2022-08-07T15:15:52.749Z,1.73
2022-08-07T15:18:28.448Z,4.72
2022-08-07T15:21:07.964Z,3.50
2022-08-07T15:25:15.254Z,2.53
2022-08-07T15:26:41.559Z,3.72
2022-08-07T15:30:09.685Z,5.43
2022-08-07T15:32:02.780Z,2.28
2022-08-07T15:34:50.541Z,1.90
2022-08-07T15:40:35.007Z,2.13
2022-08-07T15:54:40.725Z,1.25
2022-08-07T15:57:27.991Z,1.90
2022-08-07T16:00:04.487Z,1.73
2022-08-07T16:02:41.790Z,1.65
2022-08-07T16:05:18.584Z,1.17
2022-08-07T16:11:27.265Z,1.40
2022-08-07T16:18:02.004Z,1.50
2022-08-07T16:21:43.976Z,1.40
2022-08-07T16:27:26.166Z,1.05
2022-08-07T16:34:02.171Z,0.95
2022-08-07T16:36:32.227Z,1.85
2022-08-07T16:50:26.818Z,1.20
2022-08-07T16:52:50.884Z,1.35
2022-08-07T16:55:08.492Z,1.75
2022-08-07T16:58:02.701Z,1.40
2022-08-07T17:07:28.492Z,2.85
2022-08-07T17:16:14.764Z,1.20
2022-08-07T17:18:54.335Z,2.00
2022-08-07T17:21:28.931Z,1.25
2022-08-07T17:24:52.334Z,1.52
2022-08-07T17:27:50.821Z,1.23
2022-08-07T17:35:56.632Z,4.80
2022-08-07T17:42:02.042Z,1.92
2022-08-07T17:44:50.213Z,1.20
2022-08-07T17:47:42.774Z,3.25
2022-08-07T17:50:31.718Z,1.13
2022-08-07T17:53:09.111Z,1.30
2022-08-07T17:56:15.314Z,2.30
2022-08-07T18:01:36.729Z,1.17
2022-08-07T18:04:34.957Z,1.52
2022-08-07T18:10:06.110Z,1.40
2022-08-07T18:13:15.279Z,1.50
2022-08-07T18:16:01.405Z,1.63
2022-08-07T18:21:03.630Z,1.00
2022-08-07T18:21:57.778Z,1.17
2022-08-07T18:24:37.214Z,4.07
2022-08-07T18:30:31.136Z,3.47
2022-08-07T18:36:57.550Z,2.80
2022-08-07T18:40:06.518Z,1.13
2022-08-07T18:42:44.867Z,2.65
2022-08-07T18:45:39.962Z,1.20
2022-08-07T18:48:10.215Z,1.63
2022-08-07T18:58:38.361Z,3.22
2022-08-07T19:08:03.934Z,1.65
2022-08-07T19:10:49.662Z,1.30
2022-08-07T19:16:03.004Z,1.10
2022-08-07T19:18:49.939Z,1.27
2022-08-07T19:24:43.424Z,1.27
2022-08-07T19:28:31.056Z,1.33
2022-08-07T19:31:04.455Z,1.08
2022-08-07T19:32:59.123Z,1.23
2022-08-07T19:35:33.012Z,1.20
2022-08-07T19:38:15.695Z,0.90
2022-08-07T19:40:49.194Z,1.63
2022-08-07T19:43:21.861Z,1.73
2022-08-07T19:46:10.720Z,1.00
2022-08-07T19:48:42.838Z,1.60
2022-08-07T19:51:19.935Z,5.82
2022-08-07T19:54:30.889Z,14.90
2022-08-07T19:58:02.556Z,6.20
2022-08-07T19:59:40.704Z,7.35
2022-08-07T20:02:19.293Z,5.97
2022-08-07T20:07:23.548Z,6.43
2022-08-07T20:10:35.061Z,3.63
2022-08-07T20:12:54.028Z,5.75
2022-08-07T20:15:32.758Z,4.20
2022-08-07T20:18:14.644Z,4.25
2022-08-07T20:20:45.495Z,6.55
2022-08-07T20:23:32.849Z,3.42
2022-08-07T20:26:09.952Z,3.67
2022-08-07T20:28:39.227Z,5.18
2022-08-07T20:31:21.016Z,5.53
2022-08-07T20:33:57.707Z,4.38
2022-08-07T20:36:29.720Z,4.25
2022-08-07T20:39:00.460Z,3.05
2022-08-07T20:41:38.143Z,3.00
2022-08-07T20:44:12.836Z,4.47
2022-08-07T20:46:43.880Z,3.13
2022-08-07T20:49:59.634Z,3.15
2022-08-07T20:52:00.740Z,4.43
2022-08-07T20:54:29.777Z,2.78
2022-08-07T20:57:01.814Z,3.30
2022-08-07T21:00:06.867Z,2.67
2022-08-07T21:02:40.511Z,2.55
2022-08-07T21:05:43.075Z,2.80
2022-08-07T21:08:16.000Z,2.53
2022-08-07T21:10:44.541Z,3.63
2022-08-07T21:13:24.633Z,4.18
2022-08-07T21:16:11.437Z,3.00
2022-08-07T21:18:41.063Z,2.75
2022-08-07T21:21:16.183Z,2.53
2022-08-07T21:23:56.962Z,2.60
2022-08-07T21:26:43.453Z,2.58
2022-08-07T21:29:18.645Z,2.88
2022-08-07T21:32:47.066Z,1.98
2022-08-07T21:38:55.524Z,2.22
2022-08-07T21:41:38.386Z,2.15
2022-08-07T21:44:38.663Z,2.00
2022-08-07T21:47:19.870Z,1.98
2022-08-07T21:50:01.284Z,2.20
2022-08-07T21:55:46.698Z,2.10
2022-08-07T21:58:46.041Z,3.58
2022-08-07T22:02:07.796Z,1.80
2022-08-07T22:04:22.122Z,2.10
2022-08-07T22:07:06.899Z,2.92
2022-08-07T22:09:53.607Z,2.08
2022-08-07T22:12:27.209Z,1.80
2022-08-07T22:15:04.311Z,2.13
2022-08-07T22:23:30.876Z,2.75
2022-08-07T22:26:19.515Z,2.30
2022-08-07T22:28:53.103Z,2.63
2022-08-07T22:31:59.239Z,2.10
2022-08-07T22:34:49.788Z,2.30
2022-08-07T22:38:03.887Z,3.55
2022-08-07T22:40:59.952Z,2.10
2022-08-07T22:43:45.744Z,2.15
2022-08-07T22:47:03.957Z,2.60
2022-08-07T22:50:04.466Z,1.70
2022-08-07T22:55:59.188Z,1.75
2022-08-07T22:58:44.954Z,2.22
2022-08-07T23:04:57.985Z,2.05
2022-08-07T23:08:24.255Z,2.53
2022-08-07T23:14:16.034Z,1.60
2022-08-07T23:16:58.373Z,1.90
2022-08-07T23:25:12.683Z,2.08
2022-08-07T23:28:21.074Z,2.15
2022-08-07T23:37:22.457Z,1.48
2022-08-07T23:40:13.157Z,1.55
2022-08-07T23:46:03.526Z,1.90
2022-08-07T23:53:06.585Z,2.85
2022-08-07T23:55:53.302Z,1.92
2022-08-07T23:58:49.064Z,1.80
